This is the latest recevied weather packets stored in our database for station/object DL2MWB-13. If no packets are shown the sender has not sent any weather packets the latest 10 day(s).
| Time | Temp. | Humidity | Pressure | Rain* | Wind** | Luminosity | Snow |
|---|---|---|---|---|---|---|---|
| 1777704909 | 11.67° C | 55% | 1028 hPa | - | - | - | - |
| 1777704307 | 11.67° C | 57% | 1028 hPa | - | - | - | - |
| 1777703702 | 11.67° C | 59% | 1028 hPa | - | - | - | - |
| 1777703099 | 10° C | 64% | 1028 hPa | - | - | - | - |
| 1777702495 | 10° C | 64% | 1028 hPa | - | - | - | - |
| 1777701892 | 9.44° C | 63% | 1028 hPa | - | - | - | - |
| 1777701288 | 8.89° C | 63% | 1028 hPa | - | - | - | - |
| 1777700685 | 8.89° C | 62% | 1028 hPa | - | - | - | - |
| 1777700081 | 8.89° C | 62% | 1028 hPa | - | - | - | - |
| 1777699478 | 8.89° C | 61% | 1028 hPa | - | - | - | - |
| 1777698874 | 8.33° C | 60% | 1028 hPa | - | - | - | - |
| 1777698271 | 8.33° C | 58% | 1028 hPa | - | - | - | - |
| 1777697667 | 7.78° C | 58% | 1028 hPa | - | - | - | - |
| 1777697064 | 7.78° C | 58% | 1028 hPa | - | - | - | - |
| 1777696460 | 7.78° C | 57% | 1028 hPa | - | - | - | - |
| 1777695857 | 7.78° C | 58% | 1028 hPa | - | - | - | - |
| 1777695253 | 7.78° C | 56% | 1028 hPa | - | - | - | - |
| 1777694650 | 7.78° C | 56% | 1028 hPa | - | - | - | - |
| 1777694047 | 7.78° C | 56% | 1028 hPa | - | - | - | - |
| 1777693443 | 7.78° C | 56% | 1028 hPa | - | - | - | - |
| 1777692839 | 7.78° C | 55% | 1028 hPa | - | - | - | - |
| 1777692236 | 7.78° C | 54% | 1028 hPa | - | - | - | - |
| 1777691632 | 7.78° C | 54% | 1028 hPa | - | - | - | - |
| 1777691029 | 8.33° C | 54% | 1028 hPa | - | - | - | - |
| 1777690425 | 8.33° C | 54% | 1028 hPa | - | - | - | - |
* Rain since midnight (hover to see other rain measurements)
** Current wind speed in m/s (hover to see current wind gust speed)